Time;durP1;ratioP1;P1;durP2;ratioP2;P2;SDS_P1;SDS_P2;PMS_P1;PMS_P2;Temp;Humidity;BMP_temperature;BMP_pressure;BME280_temperature;BME280_humidity;BME280_pressure;Samples;Min_cycle;Max_cycle;Signal;HPM_P1;HPM_P2
2021/11/09 00:01:54;;;;;;;8.65;3.30;;;;;;;;;;4827074;29;20369;-91
2021/11/09 00:04:25;;;;;;;6.20;3.30;;;;;;;;;;4827165;29;20031;-90
2021/11/09 00:10:07;;;;;;;6.18;2.70;;;;;;;;;;4823473;29;20038;-89
2021/11/09 00:12:35;;;;;;;8.43;3.10;;;;;;;;;;4828552;29;20034;-90
2021/11/09 00:15:04;;;;;;;6.47;3.00;;;;;;;;;;4828364;29;20029;-91
2021/11/09 00:17:31;;;;;;;12.55;3.25;;;;;;;;;;4828318;29;20116;-91
2021/11/09 00:19:57;;;;;;;6.28;2.92;;;;;;;;;;4828082;29;20042;-91
2021/11/09 00:22:24;;;;;;;6.68;3.13;;;;;;;;;;4828523;29;20061;-91
2021/11/09 00:24:52;;;;;;;7.65;3.15;;;;;;;;;;4828556;29;20122;-90
2021/11/09 00:27:19;;;;;;;7.32;2.85;;;;;;;;;;4828303;29;20029;-91
2021/11/09 00:29:45;;;;;;;7.40;2.80;;;;;;;;;;4828221;29;20535;-90
2021/11/09 00:32:11;;;;;;;9.48;3.00;;;;;;;;;;4828134;29;20086;-92
2021/11/09 00:34:38;;;;;;;9.57;3.35;;;;;;;;;;4828132;29;20038;-91
2021/11/09 00:37:05;;;;;;;7.35;3.25;;;;;;;;;;4844304;29;20034;-92
2021/11/09 00:39:31;;;;;;;8.48;3.25;;;;;;;;;;4827900;29;20038;-91
2021/11/09 00:41:58;;;;;;;6.00;2.92;;;;;;;;;;4828635;29;20038;-90
2021/11/09 00:44:24;;;;;;;8.48;2.95;;;;;;;;;;4827924;29;20067;-91
2021/11/09 00:46:51;;;;;;;8.20;3.35;;;;;;;;;;4827844;29;20026;-91
2021/11/09 00:49:19;;;;;;;8.13;3.03;;;;;;;;;;4828160;29;20042;-91
2021/11/09 00:51:46;;;;;;;8.32;3.35;;;;;;;;;;4827913;29;20061;-91
2021/11/09 00:54:12;;;;;;;7.43;3.60;;;;;;;;;;4827875;29;20033;-91
2021/11/09 00:56:39;;;;;;;7.30;3.45;;;;;;;;;;4827733;29;20030;-90
2021/11/09 00:59:05;;;;;;;9.80;3.72;;;;;;;;;;4827813;29;20046;-90
2021/11/09 01:01:32;;;;;;;7.57;3.35;;;;;;;;;;4843858;29;20022;-91
2021/11/09 01:03:59;;;;;;;8.88;3.17;;;;;;;;;;4827705;29;20432;-91
2021/11/09 01:06:26;;;;;;;14.35;3.35;;;;;;;;;;4827609;29;20030;-91
2021/11/09 01:08:53;;;;;;;10.40;4.00;;;;;;;;;;4824375;29;20050;-91
2021/11/09 01:11:20;;;;;;;8.48;3.53;;;;;;;;;;4824943;29;20480;-90
2021/11/09 01:13:47;;;;;;;8.50;3.63;;;;;;;;;;4824794;29;20027;-91
2021/11/09 01:16:14;;;;;;;7.55;3.50;;;;;;;;;;4824774;29;20038;-90
2021/11/09 01:18:42;;;;;;;7.45;3.63;;;;;;;;;;4824437;29;20061;-91
2021/11/09 01:21:12;;;;;;;7.25;3.03;;;;;;;;;;4824657;29;20054;-90
2021/11/09 01:23:38;;;;;;;7.38;3.35;;;;;;;;;;4825468;29;20113;-91
2021/11/09 01:26:05;;;;;;;8.13;3.33;;;;;;;;;;4824634;29;20034;-90
2021/11/09 01:28:31;;;;;;;10.77;3.42;;;;;;;;;;4824337;29;20400;-91
2021/11/09 01:30:59;;;;;;;7.60;3.67;;;;;;;;;;4824193;29;20095;-91
2021/11/09 01:33:25;;;;;;;10.90;3.15;;;;;;;;;;4824200;29;20050;-90
2021/11/09 01:35:52;;;;;;;14.48;3.22;;;;;;;;;;4824481;29;20034;-91
2021/11/09 01:38:19;;;;;;;9.07;3.60;;;;;;;;;;4824101;29;20061;-91
2021/11/09 01:40:46;;;;;;;10.07;3.60;;;;;;;;;;4824732;29;20098;-91
2021/11/09 01:43:14;;;;;;;10.05;3.72;;;;;;;;;;4824401;29;20078;-91
2021/11/09 01:45:40;;;;;;;8.63;3.30;;;;;;;;;;4824462;29;20102;-90
2021/11/09 01:48:07;;;;;;;8.68;3.30;;;;;;;;;;4824108;29;20054;-91
2021/11/09 01:50:40;;;;;;;10.23;3.92;;;;;;;;;;4824032;29;20037;-91
2021/11/09 01:53:07;;;;;;;10.88;4.40;;;;;;;;;;4824114;29;20134;-91
2021/11/09 01:55:35;;;;;;;9.00;3.97;;;;;;;;;;4823910;29;20051;-91
2021/11/09 01:58:02;;;;;;;7.32;3.85;;;;;;;;;;4824099;29;20035;-91
2021/11/09 02:00:33;;;;;;;11.13;3.88;;;;;;;;;;4823802;29;20043;-89
2021/11/09 02:03:00;;;;;;;8.55;3.55;;;;;;;;;;4820153;29;20053;-91
2021/11/09 02:05:28;;;;;;;9.77;3.58;;;;;;;;;;4824118;29;20035;-90
2021/11/09 02:07:55;;;;;;;9.30;4.70;;;;;;;;;;4823920;29;20053;-91
2021/11/09 02:10:30;;;;;;;5.43;3.08;;;;;;;;;;4823895;29;20031;-91
2021/11/09 02:12:57;;;;;;;9.43;3.47;;;;;;;;;;4825013;29;20038;-91
2021/11/09 02:15:24;;;;;;;11.82;4.32;;;;;;;;;;4824018;29;20049;-91
2021/11/09 02:17:50;;;;;;;10.77;4.43;;;;;;;;;;4824016;29;20129;-91
2021/11/09 02:20:18;;;;;;;11.93;3.85;;;;;;;;;;4823856;29;20567;-89
2021/11/09 02:22:45;;;;;;;8.90;4.20;;;;;;;;;;4823700;29;20491;-91
2021/11/09 02:25:13;;;;;;;8.73;4.40;;;;;;;;;;4824853;29;20027;-89
2021/11/09 02:27:39;;;;;;;10.07;4.07;;;;;;;;;;4825246;29;20084;-91
2021/11/09 02:30:08;;;;;;;8.43;3.40;;;;;;;;;;4824847;29;20492;-90
2021/11/09 02:32:34;;;;;;;7.88;3.70;;;;;;;;;;4827425;29;20034;-92
2021/11/09 02:35:01;;;;;;;7.85;3.80;;;;;;;;;;4826980;29;20121;-92
2021/11/09 02:37:27;;;;;;;13.60;5.20;;;;;;;;;;4827352;29;20022;-91
2021/11/09 02:39:54;;;;;;;11.25;4.88;;;;;;;;;;4826967;29;20378;-92
2021/11/09 02:42:21;;;;;;;14.23;5.75;;;;;;;;;;4827823;29;20030;-90
2021/11/09 02:44:59;;;;;;;13.45;6.38;;;;;;;;;;4826713;29;20042;-91
2021/11/09 02:47:30;;;;;;;15.43;6.88;;;;;;;;;;4826872;29;20063;-91
2021/11/09 02:50:07;;;;;;;12.70;5.88;;;;;;;;;;4826963;29;20026;-91
2021/11/09 02:52:36;;;;;;;13.18;5.05;;;;;;;;;;4827687;29;20053;-92
2021/11/09 02:55:09;;;;;;;13.52;5.78;;;;;;;;;;4826631;29;20034;-92
2021/11/09 02:57:44;;;;;;;;;;;;;;;;;;4828330;29;20179;-91
2021/11/09 03:02:50;;;;;;;10.35;4.72;;;;;;;;;;4827580;29;20110;-91
2021/11/09 03:10:38;;;;;;;12.48;4.78;;;;;;;;;;4824069;29;20042;-90
2021/11/09 03:13:05;;;;;;;8.55;4.20;;;;;;;;;;4829188;29;20089;-91
2021/11/09 03:15:34;;;;;;;10.80;5.15;;;;;;;;;;4829318;29;20036;-91
2021/11/09 03:18:10;;;;;;;13.85;3.97;;;;;;;;;;4829302;29;20183;-91
2021/11/09 03:20:47;;;;;;;11.30;4.75;;;;;;;;;;4829219;29;20097;-90
2021/11/09 03:45:06;;;;;;;11.57;3.97;;;;;;;;;;4845883;29;20055;-91
2021/11/09 03:47:37;;;;;;;10.98;4.63;;;;;;;;;;4828820;29;20022;-91
2021/11/09 03:50:05;;;;;;;14.48;4.22;;;;;;;;;;4828881;29;20022;-91
2021/11/09 03:52:40;;;;;;;10.95;5.18;;;;;;;;;;4828897;29;20086;-91
2021/11/09 03:55:07;;;;;;;12.15;4.60;;;;;;;;;;4829069;29;20087;-89
2021/11/09 03:57:39;;;;;;;15.43;5.00;;;;;;;;;;4828627;29;20037;-90
2021/11/09 04:00:26;;;;;;;11.02;4.95;;;;;;;;;;4844690;29;20572;-89
2021/11/09 04:03:07;;;;;;;10.45;4.45;;;;;;;;;;4828529;29;20034;-92
2021/11/09 04:05:37;;;;;;;10.38;4.13;;;;;;;;;;4828782;29;20034;-91
2021/11/09 04:10:59;;;;;;;10.75;4.22;;;;;;;;;;4827308;29;20066;-91
2021/11/09 04:14:34;;;;;;;10.23;5.15;;;;;;;;;;4826235;29;20034;-91
2021/11/09 04:16:37;;;;;;;15.05;4.53;;;;;;;;;;4818369;29;20062;-90
2021/11/09 04:53:39;;;;;;;9.13;4.13;;;;;;;;;;4826084;29;20510;-92
2021/11/09 05:09:55;;;;;;;9.55;4.15;;;;;;;;;;4844734;29;20512;-92
2021/11/09 05:12:22;;;;;;;10.38;3.85;;;;;;;;;;4840283;29;20087;-90
2021/11/09 05:14:49;;;;;;;10.80;3.90;;;;;;;;;;4843140;29;20049;-88
2021/11/09 05:17:16;;;;;;;10.55;4.22;;;;;;;;;;4841061;29;20026;-89
2021/11/09 05:19:42;;;;;;;10.10;4.03;;;;;;;;;;4839763;29;20041;-90
2021/11/09 05:22:08;;;;;;;13.73;3.92;;;;;;;;;;4840839;29;20114;-90
2021/11/09 05:24:35;;;;;;;9.25;4.15;;;;;;;;;;4842542;29;20034;-91
2021/11/09 05:27:01;;;;;;;11.93;4.32;;;;;;;;;;4843080;29;20041;-89
2021/11/09 05:29:28;;;;;;;9.38;3.78;;;;;;;;;;4835948;29;20043;-92
2021/11/09 05:31:58;;;;;;;13.00;3.95;;;;;;;;;;4829199;29;20067;-91
2021/11/09 05:34:26;;;;;;;11.25;4.32;;;;;;;;;;4829172;29;20499;-93
2021/11/09 05:36:53;;;;;;;9.18;4.25;;;;;;;;;;4846248;29;20018;-93
2021/11/09 05:39:24;;;;;;;18.00;4.53;;;;;;;;;;4831266;29;20094;-92
2021/11/09 05:41:52;;;;;;;7.72;3.53;;;;;;;;;;4830163;29;20034;-91
2021/11/09 05:44:19;;;;;;;9.63;4.35;;;;;;;;;;4826057;29;20125;-86
2021/11/09 05:46:45;;;;;;;13.02;4.47;;;;;;;;;;4826725;29;20041;-91
2021/11/09 05:49:11;;;;;;;10.95;4.30;;;;;;;;;;4826865;29;20028;-89
2021/11/09 05:51:38;;;;;;;8.98;4.13;;;;;;;;;;4826983;29;20511;-89
2021/11/09 05:54:05;;;;;;;8.82;3.75;;;;;;;;;;4826985;29;20034;-89
2021/11/09 05:56:31;;;;;;;11.65;4.97;;;;;;;;;;4826811;29;20041;-89
2021/11/09 05:58:58;;;;;;;8.13;4.45;;;;;;;;;;4826960;29;20050;-90
2021/11/09 06:01:24;;;;;;;10.45;4.57;;;;;;;;;;4827608;29;20022;-93
2021/11/09 06:03:51;;;;;;;13.70;5.70;;;;;;;;;;4826965;29;20090;-89
2021/11/09 06:06:17;;;;;;;9.23;4.85;;;;;;;;;;4829350;29;20030;-89
2021/11/09 06:08:46;;;;;;;11.85;5.28;;;;;;;;;;4826972;29;20053;-89
2021/11/09 06:11:12;;;;;;;10.45;4.88;;;;;;;;;;4826839;29;20031;-89
2021/11/09 06:13:38;;;;;;;18.55;5.60;;;;;;;;;;4826868;29;20033;-90
2021/11/09 06:16:05;;;;;;;15.63;4.97;;;;;;;;;;4827228;29;20118;-89
2021/11/09 06:18:31;;;;;;;12.57;4.75;;;;;;;;;;4826650;29;20031;-91
2021/11/09 06:20:57;;;;;;;13.68;5.30;;;;;;;;;;4826943;29;20038;-90
2021/11/09 06:23:23;;;;;;;13.00;4.18;;;;;;;;;;4827323;29;20137;-90
2021/11/09 06:25:49;;;;;;;9.38;3.83;;;;;;;;;;4827673;29;20464;-90
2021/11/09 06:28:18;;;;;;;11.43;4.38;;;;;;;;;;4826807;29;20061;-90
2021/11/09 06:30:46;;;;;;;12.02;4.20;;;;;;;;;;4826846;29;20091;-90
2021/11/09 06:33:13;;;;;;;17.13;6.32;;;;;;;;;;4826742;29;20026;-91
2021/11/09 06:35:39;;;;;;;11.98;5.72;;;;;;;;;;4827193;29;20077;-92
2021/11/09 06:38:05;;;;;;;11.73;5.45;;;;;;;;;;4826632;29;20088;-90
2021/11/09 06:40:32;;;;;;;12.95;6.38;;;;;;;;;;4826689;29;20400;-91
2021/11/09 06:42:59;;;;;;;18.20;9.20;;;;;;;;;;4826684;29;20090;-91
2021/11/09 06:45:25;;;;;;;15.35;7.65;;;;;;;;;;4826550;29;20121;-91
2021/11/09 06:47:52;;;;;;;13.35;7.53;;;;;;;;;;4827434;29;20125;-91
2021/11/09 06:50:19;;;;;;;16.92;7.60;;;;;;;;;;4827109;29;20075;-91
2021/11/09 06:52:45;;;;;;;14.15;8.13;;;;;;;;;;4827854;29;20034;-89
2021/11/09 06:55:12;;;;;;;14.13;7.95;;;;;;;;;;4826915;29;20075;-89
2021/11/09 06:57:38;;;;;;;16.23;7.53;;;;;;;;;;4827258;29;20038;-89
2021/11/09 07:00:06;;;;;;;14.65;7.15;;;;;;;;;;4827133;29;20065;-89
2021/11/09 07:02:34;;;;;;;19.98;8.55;;;;;;;;;;4826492;29;20034;-90
2021/11/09 07:05:00;;;;;;;49.65;22.10;;;;;;;;;;4829211;29;20041;-89
2021/11/09 07:07:26;;;;;;;16.85;8.15;;;;;;;;;;4826180;29;20050;-89
2021/11/09 07:09:52;;;;;;;31.23;10.05;;;;;;;;;;4826728;29;20030;-91
2021/11/09 07:12:18;;;;;;;15.73;6.97;;;;;;;;;;4826534;29;20038;-88
2021/11/09 07:14:45;;;;;;;22.95;6.63;;;;;;;;;;4827280;29;20034;-89
2021/11/09 07:17:11;;;;;;;14.93;7.28;;;;;;;;;;4825825;29;20030;-89
2021/11/09 07:19:38;;;;;;;13.00;5.78;;;;;;;;;;4826249;29;20046;-90
2021/11/09 07:22:05;;;;;;;11.70;5.82;;;;;;;;;;4826189;29;20083;-89
2021/11/09 07:24:31;;;;;;;16.20;5.60;;;;;;;;;;4826182;29;20037;-88
2021/11/09 07:26:58;;;;;;;14.05;5.45;;;;;;;;;;4826078;29;20031;-89
2021/11/09 07:29:24;;;;;;;10.57;5.50;;;;;;;;;;4826898;29;20039;-88
2021/11/09 07:31:53;;;;;;;15.35;5.80;;;;;;;;;;4825992;29;20031;-89
2021/11/09 07:34:20;;;;;;;15.90;5.75;;;;;;;;;;4825728;29;20046;-89
2021/11/09 07:36:46;;;;;;;12.07;5.43;;;;;;;;;;4826113;29;20041;-89
2021/11/09 07:39:12;;;;;;;16.30;6.28;;;;;;;;;;4825573;29;20030;-90
2021/11/09 07:41:41;;;;;;;13.07;4.97;;;;;;;;;;4826157;29;20487;-89
2021/11/09 07:44:08;;;;;;;14.75;5.78;;;;;;;;;;4825843;29;20160;-89
2021/11/09 07:46:35;;;;;;;14.30;4.95;;;;;;;;;;4826448;29;20384;-90
2021/11/09 07:49:02;;;;;;;9.00;4.80;;;;;;;;;;4826182;29;20525;-89
2021/11/09 07:51:28;;;;;;;10.38;4.47;;;;;;;;;;4826436;29;20064;-90
2021/11/09 07:53:57;;;;;;;14.80;5.45;;;;;;;;;;4825382;29;20030;-91
2021/11/09 07:56:26;;;;;;;8.95;4.30;;;;;;;;;;4826020;29;20031;-89
2021/11/09 08:01:45;;;;;;;8.45;4.15;;;;;;;;;;4826441;29;20033;-90
2021/11/09 08:04:26;;;;;;;7.68;3.50;;;;;;;;;;4825999;29;20030;-89
2021/11/09 08:09:28;;;;;;;7.43;3.78;;;;;;;;;;4844896;29;20054;-92
2021/11/09 08:11:58;;;;;;;7.28;3.70;;;;;;;;;;4827569;29;20108;-91
2021/11/09 08:14:25;;;;;;;6.03;3.20;;;;;;;;;;4828527;29;20076;-93
2021/11/09 08:16:51;;;;;;;9.65;3.25;;;;;;;;;;4828820;29;20030;-92
2021/11/09 08:19:18;;;;;;;5.40;2.30;;;;;;;;;;4828182;29;20050;-93
2021/11/09 08:21:45;;;;;;;4.70;2.30;;;;;;;;;;4828382;29;20025;-91
2021/11/09 08:24:14;;;;;;;6.00;2.00;;;;;;;;;;4828160;29;20033;-91
2021/11/09 08:26:40;;;;;;;6.30;2.33;;;;;;;;;;4828508;29;20026;-93
2021/11/09 08:29:07;;;;;;;5.28;1.85;;;;;;;;;;4827422;29;20030;-93
2021/11/09 08:31:34;;;;;;;4.07;1.73;;;;;;;;;;4828159;29;20034;-93
2021/11/09 08:34:02;;;;;;;3.63;1.52;;;;;;;;;;4827930;29;20128;-92
2021/11/09 08:36:29;;;;;;;4.65;1.77;;;;;;;;;;4828000;29;20081;-92
2021/11/09 08:38:57;;;;;;;4.85;1.77;;;;;;;;;;4828316;29;20120;-92
2021/11/09 08:41:27;;;;;;;3.22;1.45;;;;;;;;;;4828659;29;20109;-92
2021/11/09 08:44:04;;;;;;;4.05;1.80;;;;;;;;;;4828277;29;20120;-92
2021/11/09 08:46:35;;;;;;;4.28;1.67;;;;;;;;;;4828072;29;20036;-92
2021/11/09 08:49:03;;;;;;;6.20;2.30;;;;;;;;;;4827905;29;20132;-92
2021/11/09 08:51:30;;;;;;;7.65;2.28;;;;;;;;;;4828661;29;20029;-92
2021/11/09 08:56:31;;;;;;;3.25;1.55;;;;;;;;;;4844084;29;20069;-91
2021/11/09 09:04:13;;;;;;;4.03;1.60;;;;;;;;;;4843929;29;20032;-92
2021/11/09 09:06:40;;;;;;;4.60;1.80;;;;;;;;;;4827637;29;20030;-92
2021/11/09 09:09:07;;;;;;;5.10;1.73;;;;;;;;;;4824618;29;20058;-91
2021/11/09 09:11:35;;;;;;;4.53;1.90;;;;;;;;;;4824820;29;20031;-92
2021/11/09 09:14:02;;;;;;;4.50;2.05;;;;;;;;;;4824881;29;20039;-94
2021/11/09 09:16:29;;;;;;;4.57;2.03;;;;;;;;;;4825149;29;20090;-88
2021/11/09 09:18:56;;;;;;;6.75;1.95;;;;;;;;;;4824328;29;20207;-93
2021/11/09 09:21:33;;;;;;;3.90;2.03;;;;;;;;;;4824521;29;20034;-92
2021/11/09 09:24:07;;;;;;;4.90;2.25;;;;;;;;;;4824439;29;20033;-91
2021/11/09 09:27:07;;;;;;;6.47;2.55;;;;;;;;;;4824414;29;20506;-90
2021/11/09 09:56:57;;;;;;;4.38;2.08;;;;;;;;;;4829375;29;20104;-93
2021/11/09 09:59:28;;;;;;;2.58;1.50;;;;;;;;;;4827592;29;20488;-93
2021/11/09 10:02:13;;;;;;;2.80;1.52;;;;;;;;;;4827638;29;20476;-93
2021/11/09 10:05:02;;;;;;;6.07;1.70;;;;;;;;;;4827510;29;20042;-92
2021/11/09 10:07:33;;;;;;;3.22;1.25;;;;;;;;;;4827343;29;20046;-92
2021/11/09 10:10:02;;;;;;;2.67;1.30;;;;;;;;;;4827704;29;20057;-92
2021/11/09 10:12:35;;;;;;;3.10;1.27;;;;;;;;;;4828033;29;20042;-92
2021/11/09 10:15:07;;;;;;;3.28;1.00;;;;;;;;;;4827291;29;20031;-92
2021/11/09 10:17:35;;;;;;;4.72;1.52;;;;;;;;;;4827694;29;20042;-92
2021/11/09 10:20:10;;;;;;;4.55;1.30;;;;;;;;;;4827276;29;20512;-91
2021/11/09 10:22:37;;;;;;;3.28;1.10;;;;;;;;;;4827446;29;20030;-92
2021/11/09 10:25:07;;;;;;;2.85;1.30;;;;;;;;;;4827208;29;20095;-91
2021/11/09 10:27:35;;;;;;;3.58;1.42;;;;;;;;;;4828207;29;20030;-91
2021/11/09 10:30:09;;;;;;;3.47;1.35;;;;;;;;;;4827295;29;20069;-91
2021/11/09 10:32:36;;;;;;;3.47;1.40;;;;;;;;;;4827406;29;20041;-91
2021/11/09 10:35:05;;;;;;;2.78;1.52;;;;;;;;;;4827308;29;20186;-90
2021/11/09 10:37:33;;;;;;;3.92;1.50;;;;;;;;;;4827214;29;20061;-90
2021/11/09 10:40:19;;;;;;;3.45;1.88;;;;;;;;;;4827139;29;20429;-89
2021/11/09 10:42:47;;;;;;;3.10;1.55;;;;;;;;;;4827293;29;20031;-90
2021/11/09 10:45:14;;;;;;;4.10;1.90;;;;;;;;;;4826949;29;20030;-91
2021/11/09 10:47:44;;;;;;;2.97;1.70;;;;;;;;;;4826847;29;20034;-90
2021/11/09 10:50:23;;;;;;;3.50;2.10;;;;;;;;;;4826291;29;20027;-90
2021/11/09 11:04:06;;;;;;;5.75;2.30;;;;;;;;;;4828035;29;20038;-90
2021/11/09 11:06:32;;;;;;;4.70;2.22;;;;;;;;;;4826774;29;20063;-91
2021/11/09 11:09:01;;;;;;;5.93;2.40;;;;;;;;;;4826240;29;20066;-91
2021/11/09 11:11:32;;;;;;;4.68;2.60;;;;;;;;;;4826779;29;20030;-92
2021/11/09 11:14:07;;;;;;;5.05;2.50;;;;;;;;;;4826750;29;20210;-91
2021/11/09 11:16:48;;;;;;;4.72;2.47;;;;;;;;;;4827012;29;20022;-91
2021/11/09 11:19:20;;;;;;;4.40;2.38;;;;;;;;;;4826527;29;20045;-90
2021/11/09 11:21:47;;;;;;;3.22;1.60;;;;;;;;;;4826440;29;20023;-91
2021/11/09 11:24:14;;;;;;;4.20;2.08;;;;;;;;;;4827238;29;20034;-91
2021/11/09 11:26:41;;;;;;;3.88;2.25;;;;;;;;;;4826384;29;20038;-91
2021/11/09 11:29:08;;;;;;;5.43;1.90;;;;;;;;;;4826530;29;20037;-92
2021/11/09 11:31:34;;;;;;;4.30;1.88;;;;;;;;;;4826614;29;20076;-91
2021/11/09 11:34:01;;;;;;;4.38;2.40;;;;;;;;;;4826174;29;20511;-92
2021/11/09 11:36:27;;;;;;;3.55;2.20;;;;;;;;;;4826125;29;20400;-93
2021/11/09 11:38:56;;;;;;;4.55;2.13;;;;;;;;;;4826408;29;20035;-92
2021/11/09 11:41:28;;;;;;;3.28;1.58;;;;;;;;;;4828564;29;20045;-92
2021/11/09 11:43:55;;;;;;;3.40;1.70;;;;;;;;;;4826465;29;20037;-92
2021/11/09 11:46:37;;;;;;;2.83;1.52;;;;;;;;;;4826170;29;20117;-91
2021/11/09 11:49:03;;;;;;;2.47;1.40;;;;;;;;;;4826936;29;20061;-92
2021/11/09 11:51:31;;;;;;;6.55;1.52;;;;;;;;;;4826076;29;20027;-92
2021/11/09 11:53:57;;;;;;;3.70;1.70;;;;;;;;;;4826124;29;20030;-92
2021/11/09 11:56:43;;;;;;;2.47;1.60;;;;;;;;;;4827057;29;20026;-92
2021/11/09 11:59:14;;;;;;;2.58;1.50;;;;;;;;;;4826047;29;20030;-92
2021/11/09 12:01:41;;;;;;;3.17;1.50;;;;;;;;;;4826143;29;20031;-93
2021/11/09 12:04:11;;;;;;;2.25;1.27;;;;;;;;;;4825425;29;20037;-93
2021/11/09 12:06:49;;;;;;;3.85;1.17;;;;;;;;;;4826003;29;20037;-93
2021/11/09 12:09:35;;;;;;;2.03;1.00;;;;;;;;;;4826173;29;20070;-92
2021/11/09 12:12:21;;;;;;;2.72;1.17;;;;;;;;;;4826122;29;20090;-92
2021/11/09 12:14:48;;;;;;;2.60;1.30;;;;;;;;;;4825042;29;20123;-91
2021/11/09 12:17:31;;;;;;;1.98;1.08;;;;;;;;;;4826306;29;20034;-91
2021/11/09 12:19:58;;;;;;;1.80;0.80;;;;;;;;;;4825793;29;20048;-90
2021/11/09 12:22:45;;;;;;;1.50;0.90;;;;;;;;;;4825921;29;20026;-90
2021/11/09 12:25:18;;;;;;;2.22;1.00;;;;;;;;;;4829543;29;20060;-89
2021/11/09 12:27:44;;;;;;;;;;;;;;;;;;4849918;29;20102;-91
2021/11/09 12:30:11;;;;;;;1.77;1.08;;;;;;;;;;4844215;29;19916;-91
2021/11/09 12:32:38;;;;;;;2.20;1.10;;;;;;;;;;4829268;29;20026;-91
2021/11/09 12:35:07;;;;;;;2.75;1.42;;;;;;;;;;4829225;29;20034;-91
2021/11/09 12:37:35;;;;;;;2.03;1.02;;;;;;;;;;4825410;29;20484;-90
2021/11/09 12:40:24;;;;;;;1.90;1.10;;;;;;;;;;4825517;29;20034;-90
2021/11/09 12:43:09;;;;;;;2.95;1.38;;;;;;;;;;4818216;29;20030;-89
2021/11/09 12:45:37;;;;;;;3.00;1.30;;;;;;;;;;4825226;29;20451;-90
2021/11/09 12:48:04;;;;;;;2.83;1.30;;;;;;;;;;4825186;29;20117;-90
2021/11/09 12:50:34;;;;;;;2.05;1.15;;;;;;;;;;4825516;29;20035;-91
2021/11/09 12:53:07;;;;;;;3.05;1.60;;;;;;;;;;4825325;29;20031;-89
2021/11/09 12:55:33;;;;;;;2.85;1.83;;;;;;;;;;4826087;29;20511;-90
2021/11/09 12:58:20;;;;;;;4.50;1.80;;;;;;;;;;4825052;29;20031;-89
2021/11/09 13:01:05;;;;;;;3.40;1.60;;;;;;;;;;4826781;29;20046;-91
2021/11/09 13:03:40;;;;;;;3.83;2.00;;;;;;;;;;4826206;29;20026;-90
2021/11/09 13:06:18;;;;;;;3.45;1.50;;;;;;;;;;4825170;29;20030;-91
2021/11/09 13:09:35;;;;;;;2.65;1.60;;;;;;;;;;4824817;29;20054;-90
2021/11/09 13:11:57;;;;;;;2.78;1.30;;;;;;;;;;4825067;29;20495;-92
2021/11/09 13:14:30;;;;;;;5.43;1.38;;;;;;;;;;4810507;29;20070;-90
2021/11/09 13:16:57;;;;;;;7.82;1.35;;;;;;;;;;4825327;29;20022;-90
2021/11/09 13:19:36;;;;;;;3.30;1.50;;;;;;;;;;4824968;29;20099;-91
2021/11/09 13:22:10;;;;;;;3.65;1.33;;;;;;;;;;4826677;29;20034;-91
2021/11/09 13:24:42;;;;;;;3.15;1.48;;;;;;;;;;4825072;29;20034;-91
2021/11/09 13:27:10;;;;;;;3.08;1.23;;;;;;;;;;4824829;29;20054;-91
2021/11/09 13:29:44;;;;;;;3.63;1.50;;;;;;;;;;4824335;29;20030;-91
2021/11/09 13:32:11;;;;;;;2.20;0.95;;;;;;;;;;4825223;29;20031;-91
2021/11/09 13:34:38;;;;;;;4.22;1.70;;;;;;;;;;4824968;29;20061;-91
2021/11/09 13:37:04;;;;;;;5.07;1.08;;;;;;;;;;4825140;29;20058;-91
2021/11/09 13:39:31;;;;;;;4.07;2.00;;;;;;;;;;4824448;29;20042;-90
2021/11/09 13:41:57;;;;;;;2.50;1.20;;;;;;;;;;4824493;29;20489;-89
2021/11/09 13:44:23;;;;;;;3.75;1.50;;;;;;;;;;4824358;29;20069;-90
2021/11/09 13:46:51;;;;;;;4.05;1.45;;;;;;;;;;4824464;29;20079;-91
2021/11/09 13:49:20;;;;;;;4.07;1.42;;;;;;;;;;4824164;29;20035;-90
2021/11/09 13:51:48;;;;;;;4.25;1.60;;;;;;;;;;4824367;29;20054;-90
2021/11/09 13:54:19;;;;;;;2.58;1.10;;;;;;;;;;4825121;29;20038;-90
2021/11/09 13:56:48;;;;;;;3.47;1.58;;;;;;;;;;4824405;29;20534;-91
2021/11/09 13:59:16;;;;;;;4.18;1.20;;;;;;;;;;4824535;29;20122;-90
2021/11/09 14:17:53;;;;;;;3.00;1.50;;;;;;;;;;4845220;29;20098;-90
2021/11/09 14:20:23;;;;;;;2.80;1.48;;;;;;;;;;4831186;29;20073;-91
2021/11/09 14:22:59;;;;;;;4.00;1.60;;;;;;;;;;4827526;29;20026;-91
2021/11/09 14:25:26;;;;;;;3.90;1.48;;;;;;;;;;4827461;29;20572;-91
2021/11/09 14:27:52;;;;;;;4.03;1.83;;;;;;;;;;4830667;29;20030;-91
2021/11/09 14:30:28;;;;;;;3.92;1.85;;;;;;;;;;4830783;29;20030;-91
2021/11/09 14:33:13;;;;;;;4.07;1.33;;;;;;;;;;4830658;29;20030;-91
2021/11/09 14:35:40;;;;;;;4.30;1.50;;;;;;;;;;4847232;29;20037;-91
2021/11/09 14:38:09;;;;;;;8.45;2.17;;;;;;;;;;4830342;29;20121;-91
2021/11/09 14:40:39;;;;;;;6.63;1.83;;;;;;;;;;4830763;29;20045;-92
2021/11/09 14:46:24;;;;;;;4.45;2.00;;;;;;;;;;4823016;29;20034;-90
2021/11/09 14:48:54;;;;;;;4.32;1.80;;;;;;;;;;4830309;29;20026;-90
2021/11/09 14:51:31;;;;;;;6.22;2.00;;;;;;;;;;4830228;29;20124;-90
2021/11/09 14:54:01;;;;;;;5.32;2.00;;;;;;;;;;4830228;29;20082;-90
2021/11/09 14:56:33;;;;;;;5.55;2.50;;;;;;;;;;4830207;29;20424;-91
2021/11/09 14:59:00;;;;;;;12.57;2.65;;;;;;;;;;4830363;29;20034;-90
2021/11/09 15:01:43;;;;;;;31.60;3.42;;;;;;;;;;4830326;29;20034;-90
2021/11/09 15:04:15;;;;;;;22.65;3.50;;;;;;;;;;4830987;29;20033;-91
2021/11/09 15:12:35;;;;;;;89.72;9.18;;;;;;;;;;4846203;29;20030;-91
2021/11/09 15:31:26;;;;;;;7.95;2.33;;;;;;;;;;4845861;29;20036;-90
2021/11/09 15:34:25;;;;;;;8.70;1.70;;;;;;;;;;4829797;29;20401;-90
2021/11/09 15:39:14;;;;;;;4.20;1.50;;;;;;;;;;4845567;29;20037;-91
2021/11/09 15:41:41;;;;;;;3.75;1.30;;;;;;;;;;4829576;29;20045;-89
2021/11/09 15:44:08;;;;;;;6.45;1.77;;;;;;;;;;4829814;29;20033;-91
2021/11/09 15:46:34;;;;;;;2.65;1.25;;;;;;;;;;4829290;29;20034;-92
2021/11/09 15:49:00;;;;;;;3.20;1.30;;;;;;;;;;4829557;29;20038;-90
2021/11/09 15:51:26;;;;;;;4.32;1.50;;;;;;;;;;4828770;29;20037;-91
2021/11/09 15:53:52;;;;;;;6.00;1.50;;;;;;;;;;4829427;29;20042;-90
2021/11/09 15:56:19;;;;;;;5.50;1.83;;;;;;;;;;4830141;29;20034;-90
2021/11/09 15:58:45;;;;;;;7.05;1.70;;;;;;;;;;4831348;29;20042;-90
2021/11/09 16:01:12;;;;;;;3.50;1.60;;;;;;;;;;4830230;29;20045;-90
2021/11/09 16:03:39;;;;;;;3.47;1.30;;;;;;;;;;4831379;29;20030;-90
2021/11/09 16:06:07;;;;;;;4.45;1.70;;;;;;;;;;4838622;29;20030;-90
2021/11/09 16:08:35;;;;;;;7.22;1.80;;;;;;;;;;4830503;29;20137;-91
2021/11/09 16:11:21;;;;;;;5.32;2.08;;;;;;;;;;4829083;29;20027;-92
2021/11/09 16:13:47;;;;;;;7.72;1.50;;;;;;;;;;4826960;29;20034;-89
2021/11/09 16:16:13;;;;;;;4.07;1.38;;;;;;;;;;4825974;29;20031;-90
2021/11/09 16:18:39;;;;;;;5.15;1.35;;;;;;;;;;4825661;29;20034;-92
2021/11/09 16:21:07;;;;;;;7.32;1.92;;;;;;;;;;4826138;29;20101;-91
2021/11/09 16:23:34;;;;;;;7.05;1.92;;;;;;;;;;4826283;29;20073;-90
2021/11/09 16:26:00;;;;;;;2.92;1.20;;;;;;;;;;4825826;29;20030;-91
2021/11/09 16:28:26;;;;;;;3.97;1.73;;;;;;;;;;4825581;29;20459;-90
2021/11/09 16:30:54;;;;;;;4.05;1.80;;;;;;;;;;4826201;29;20091;-90
2021/11/09 16:33:28;;;;;;;8.93;1.73;;;;;;;;;;4825793;29;20035;-91
2021/11/09 16:38:28;;;;;;;5.00;1.98;;;;;;;;;;4827320;29;20537;-91
2021/11/09 16:40:56;;;;;;;4.35;1.80;;;;;;;;;;4825781;29;20401;-91
2021/11/09 16:43:45;;;;;;;5.28;1.98;;;;;;;;;;4825718;29;20030;-91
2021/11/09 16:46:29;;;;;;;6.75;2.03;;;;;;;;;;4825519;29;20034;-92
2021/11/09 16:49:06;;;;;;;3.70;1.55;;;;;;;;;;4825859;29;20037;-88
2021/11/09 16:51:38;;;;;;;7.45;2.55;;;;;;;;;;4826765;29;20050;-92
2021/11/09 16:54:19;;;;;;;6.32;2.67;;;;;;;;;;4834724;29;20011;-92
2021/11/09 17:02:09;;;;;;;5.72;2.80;;;;;;;;;;4829374;29;20046;-91
2021/11/09 17:05:02;;;;;;;8.77;3.22;;;;;;;;;;4827635;29;20031;-92
2021/11/09 18:13:10;;;;;;;11.98;5.20;;;;;;;;;;4848203;29;20053;-89
2021/11/09 18:15:53;;;;;;;12.30;5.40;;;;;;;;;;4847512;29;20041;-89
2021/11/09 18:21:24;;;;;;;12.32;4.95;;;;;;;;;;4755561;30;20044;-90
2021/11/09 18:23:51;;;;;;;18.65;5.68;;;;;;;;;;4755437;30;20065;-91
2021/11/09 18:26:17;;;;;;;17.58;7.47;;;;;;;;;;4783525;29;20037;-91
2021/11/09 18:28:44;;;;;;;21.88;7.13;;;;;;;;;;4831231;29;20030;-92
2021/11/09 18:31:12;;;;;;;17.08;7.35;;;;;;;;;;4847976;29;20030;-90
2021/11/09 18:33:38;;;;;;;20.92;8.23;;;;;;;;;;4831883;29;20095;-91
2021/11/09 18:36:04;;;;;;;18.15;7.20;;;;;;;;;;4830289;29;20054;-91
2021/11/09 18:38:33;;;;;;;36.80;14.07;;;;;;;;;;4846949;29;20030;-92
2021/11/09 18:41:00;;;;;;;43.78;14.68;;;;;;;;;;4830758;29;20041;-93
2021/11/09 18:43:28;;;;;;;35.13;12.70;;;;;;;;;;4830563;29;20045;-92
2021/11/09 18:45:55;;;;;;;33.75;12.80;;;;;;;;;;4830548;29;20083;-90
2021/11/09 18:48:22;;;;;;;25.50;11.95;;;;;;;;;;4830440;29;20034;-91
2021/11/09 18:50:51;;;;;;;30.55;11.98;;;;;;;;;;4833272;29;20026;-92
2021/11/09 18:53:22;;;;;;;30.77;11.70;;;;;;;;;;4834916;29;20067;-91
2021/11/09 18:55:52;;;;;;;34.13;10.75;;;;;;;;;;4848165;29;20030;-93
2021/11/09 18:58:18;;;;;;;33.72;12.77;;;;;;;;;;4833358;29;20054;-92
2021/11/09 19:00:54;;;;;;;38.10;16.08;;;;;;;;;;4830932;29;20091;-93
2021/11/09 19:03:20;;;;;;;50.42;17.48;;;;;;;;;;4834173;29;20034;-94
2021/11/09 19:05:49;;;;;;;43.55;16.27;;;;;;;;;;4832459;29;20056;-93
2021/11/09 19:08:18;;;;;;;41.70;16.50;;;;;;;;;;4831196;29;20050;-92
2021/11/09 19:10:44;;;;;;;41.83;16.17;;;;;;;;;;4829815;29;20099;-93